Time,TemperatureF,DewpointF,PressureIn,WindDirection,WindDirectionDegrees,WindSpeedMPH,WindSpeedGustMPH,Humidity,HourlyPrecipIn,Conditions,Clouds,dailyrainin,SoftwareType,DateUTC
2013-07-22 00:03:00,54.3,51.4,29.90,South,170,0.0,3.0,90,0.00,,,0.00,LWC V1.00 B64,2013-07-22 07:03:00,
2013-07-22 00:08:00,54.5,51.6,29.90,South,171,0.0,1.0,90,0.00,,,0.00,LWC V1.00 B64,2013-07-22 07:08:00,
2013-07-22 00:13:00,54.5,51.6,29.90,South,171,0.0,0.0,90,0.00,,,0.00,LWC V1.00 B64,2013-07-22 07:13:00,
2013-07-22 00:18:00,54.6,51.7,29.90,South,171,0.0,2.0,90,0.00,,,0.00,LWC V1.00 B64,2013-07-22 07:18:00,
2013-07-22 00:23:00,54.7,51.8,29.90,South,171,0.0,1.0,90,0.00,,,0.00,LWC V1.00 B64,2013-07-22 07:23:00,
2013-07-22 00:28:00,54.9,52.0,29.91,South,173,0.0,0.0,90,0.00,,,0.00,LWC V1.00 B64,2013-07-22 07:28:00,
2013-07-22 00:33:00,54.8,51.9,29.91,South,173,0.0,0.0,90,0.00,,,0.00,LWC V1.00 B64,2013-07-22 07:33:00,
2013-07-22 00:38:00,54.9,52.0,29.91,South,173,0.0,1.0,90,0.00,,,0.00,LWC V1.00 B64,2013-07-22 07:38:00,
2013-07-22 00:43:00,55.0,52.1,29.91,South,173,0.0,0.0,90,0.00,,,0.00,LWC V1.00 B64,2013-07-22 07:43:00,
2013-07-22 00:48:00,54.9,52.0,29.91,South,173,0.0,0.0,90,0.00,,,0.00,LWC V1.00 B64,2013-07-22 07:48:00,
2013-07-22 00:53:00,54.9,52.0,29.91,South,173,0.0,0.0,90,0.00,,,0.00,LWC V1.00 B64,2013-07-22 07:53:00,
2013-07-22 00:58:00,55.0,52.1,29.91,South,178,0.0,4.0,90,0.00,,,0.00,LWC V1.00 B64,2013-07-22 07:58:00,
2013-07-22 01:03:00,55.2,52.6,29.90,South,178,0.0,1.0,91,0.00,,,0.00,LWC V1.00 B64,2013-07-22 08:03:00,
2013-07-22 01:08:00,55.2,52.6,29.91,South,183,3.0,3.0,91,0.00,,,0.00,LWC V1.00 B64,2013-07-22 08:08:00,
2013-07-22 01:13:00,55.3,52.7,29.91,South,190,0.0,0.0,91,0.00,,,0.00,LWC V1.00 B64,2013-07-22 08:13:00,
2013-07-22 01:18:00,55.3,52.7,29.91,South,190,0.0,0.0,91,0.00,,,0.00,LWC V1.00 B64,2013-07-22 08:18:00,
2013-07-22 01:23:00,55.3,52.7,29.91,South,190,0.0,2.0,91,0.00,,,0.00,LWC V1.00 B64,2013-07-22 08:23:00,
2013-07-22 01:28:00,55.2,52.6,29.90,South,190,0.0,1.0,91,0.00,,,0.00,LWC V1.00 B64,2013-07-22 08:28:00,
2013-07-22 01:33:00,55.3,52.7,29.90,SSW,193,0.0,2.0,91,0.00,,,0.00,LWC V1.00 B64,2013-07-22 08:33:00,
2013-07-22 01:38:00,55.2,52.6,29.90,SSW,197,0.0,2.0,91,0.00,,,0.00,LWC V1.00 B64,2013-07-22 08:38:00,
2013-07-22 01:43:00,55.3,52.7,29.90,SSW,199,0.0,1.0,91,0.00,,,0.00,LWC V1.00 B64,2013-07-22 08:43:00,
2013-07-22 01:48:00,55.3,52.7,29.91,SSW,199,2.0,2.0,91,0.00,,,0.00,LWC V1.00 B64,2013-07-22 08:48:00,
2013-07-22 01:53:00,55.3,52.7,29.91,SSW,199,3.0,4.0,91,0.00,,,0.00,LWC V1.00 B64,2013-07-22 08:53:00,
2013-07-22 01:58:00,55.3,52.7,29.91,SSW,199,0.0,1.0,91,0.00,,,0.00,LWC V1.00 B64,2013-07-22 08:58:00,
2013-07-22 02:03:00,55.3,52.7,29.92,South,182,0.0,3.0,91,0.00,,,0.00,LWC V1.00 B64,2013-07-22 09:03:00,
2013-07-22 02:08:00,55.4,52.8,29.92,South,184,1.0,3.0,91,0.00,,,0.00,LWC V1.00 B64,2013-07-22 09:08:00,
2013-07-22 02:13:00,55.6,53.0,29.92,South,172,0.0,0.0,91,0.00,,,0.00,LWC V1.00 B64,2013-07-22 09:13:00,
2013-07-22 02:18:00,55.5,52.6,29.92,SSW,198,0.0,3.0,90,0.00,,,0.00,LWC V1.00 B64,2013-07-22 09:18:00,
2013-07-22 02:23:00,55.5,52.9,29.92,SSW,198,1.0,2.0,91,0.00,,,0.00,LWC V1.00 B64,2013-07-22 09:23:00,
2013-07-22 02:28:00,55.5,52.9,29.92,SSW,198,0.0,2.0,91,0.00,,,0.00,LWC V1.00 B64,2013-07-22 09:28:00,
2013-07-22 02:33:00,55.4,52.8,29.92,SSW,198,0.0,1.0,91,0.00,,,0.00,LWC V1.00 B64,2013-07-22 09:33:00,
2013-07-22 02:38:00,55.4,52.8,29.92,SSW,205,0.0,0.0,91,0.00,,,0.00,LWC V1.00 B64,2013-07-22 09:38:00,
2013-07-22 02:43:00,55.4,52.8,29.92,SSW,205,0.0,1.0,91,0.00,,,0.00,LWC V1.00 B64,2013-07-22 09:43:00,
2013-07-22 02:48:00,55.3,52.7,29.92,SSW,205,0.0,1.0,91,0.00,,,0.00,LWC V1.00 B64,2013-07-22 09:48:00,
2013-07-22 02:53:00,55.4,52.8,29.91,SSW,205,0.0,0.0,91,0.00,,,0.00,LWC V1.00 B64,2013-07-22 09:53:00,
2013-07-22 02:58:00,55.4,52.8,29.92,SSW,205,0.0,0.0,91,0.00,,,0.00,LWC V1.00 B64,2013-07-22 09:58:00,
2013-07-22 03:03:00,55.4,52.8,29.91,SSW,205,0.0,1.0,91,0.00,,,0.00,LWC V1.00 B64,2013-07-22 10:03:00,
2013-07-22 03:08:00,55.4,52.8,29.91,SSW,205,0.0,0.0,91,0.00,,,0.00,LWC V1.00 B64,2013-07-22 10:08:00,
2013-07-22 03:13:00,55.5,52.9,29.91,SSW,205,0.0,0.0,91,0.00,,,0.00,LWC V1.00 B64,2013-07-22 10:13:00,
2013-07-22 03:18:00,55.5,52.9,29.91,SSW,205,0.0,0.0,91,0.00,,,0.00,LWC V1.00 B64,2013-07-22 10:18:00,
2013-07-22 03:23:00,55.6,53.0,29.91,SSW,205,0.0,0.0,91,0.00,,,0.00,LWC V1.00 B64,2013-07-22 10:23:00,
2013-07-22 03:28:00,55.6,53.0,29.91,SSW,205,0.0,0.0,91,0.00,,,0.00,LWC V1.00 B64,2013-07-22 10:28:00,
2013-07-22 03:33:00,55.8,53.2,29.91,SSW,205,0.0,0.0,91,0.00,,,0.00,LWC V1.00 B64,2013-07-22 10:33:00,
2013-07-22 03:38:00,55.9,53.3,29.91,SSW,205,0.0,0.0,91,0.00,,,0.00,LWC V1.00 B64,2013-07-22 10:38:00,
2013-07-22 03:43:00,55.9,53.3,29.91,SSW,205,0.0,1.0,91,0.00,,,0.00,LWC V1.00 B64,2013-07-22 10:43:00,
2013-07-22 03:48:00,55.9,53.3,29.91,SSW,205,0.0,2.0,91,0.00,,,0.00,LWC V1.00 B64,2013-07-22 10:48:00,
2013-07-22 03:53:00,56.0,53.4,29.91,SSW,205,0.0,0.0,91,0.00,,,0.00,LWC V1.00 B64,2013-07-22 10:53:00,
2013-07-22 03:58:00,55.9,53.3,29.91,SSW,205,0.0,2.0,91,0.00,,,0.00,LWC V1.00 B64,2013-07-22 10:58:00,
2013-07-22 04:03:00,55.8,53.2,29.91,SSW,205,0.0,2.0,91,0.00,,,0.00,LWC V1.00 B64,2013-07-22 11:03:00,
2013-07-22 04:08:00,55.7,53.1,29.91,SSW,205,0.0,0.0,91,0.00,,,0.00,LWC V1.00 B64,2013-07-22 11:08:00,
2013-07-22 04:13:00,55.7,53.1,29.91,SSW,205,0.0,1.0,91,0.00,,,0.00,LWC V1.00 B64,2013-07-22 11:13:00,
2013-07-22 04:18:00,55.8,53.2,29.91,SSW,205,0.0,4.0,91,0.00,,,0.00,LWC V1.00 B64,2013-07-22 11:18:00,
2013-07-22 04:23:00,55.8,53.2,29.91,SSW,205,0.0,1.0,91,0.00,,,0.00,LWC V1.00 B64,2013-07-22 11:23:00,
2013-07-22 04:28:00,55.8,53.2,29.91,SSW,205,0.0,0.0,91,0.00,,,0.00,LWC V1.00 B64,2013-07-22 11:28:00,
2013-07-22 04:33:00,55.9,53.3,29.91,SSW,205,0.0,0.0,91,0.00,,,0.00,LWC V1.00 B64,2013-07-22 11:33:00,
2013-07-22 04:38:00,55.9,53.3,29.91,SSW,205,0.0,0.0,91,0.00,,,0.00,LWC V1.00 B64,2013-07-22 11:38:00,
2013-07-22 04:43:00,55.9,53.3,29.91,SSW,205,0.0,0.0,91,0.00,,,0.00,LWC V1.00 B64,2013-07-22 11:43:00,
2013-07-22 04:48:00,55.9,53.3,29.92,SSW,199,0.0,2.0,91,0.00,,,0.00,LWC V1.00 B64,2013-07-22 11:48:00,
2013-07-22 04:53:00,55.8,53.2,29.92,SSE,152,0.0,4.0,91,0.00,,,0.00,LWC V1.00 B64,2013-07-22 11:53:00,
2013-07-22 04:58:00,55.7,53.1,29.92,SSE,153,1.0,2.0,91,0.00,,,0.00,LWC V1.00 B64,2013-07-22 11:58:00,
2013-07-22 05:03:00,55.7,53.1,29.91,SSE,153,0.0,0.0,91,0.00,,,0.00,LWC V1.00 B64,2013-07-22 12:03:00,
2013-07-22 05:09:00,55.7,53.1,29.92,SSE,153,0.0,1.0,91,0.00,,,0.00,LWC V1.00 B64,2013-07-22 12:09:00,
2013-07-22 05:14:00,55.7,53.1,29.92,SSE,152,0.0,4.0,91,0.00,,,0.00,LWC V1.00 B64,2013-07-22 12:14:00,
2013-07-22 05:19:00,55.7,53.1,29.91,SSE,150,1.0,3.0,91,0.00,,,0.00,LWC V1.00 B64,2013-07-22 12:19:00,
2013-07-22 05:24:00,55.7,53.1,29.92,SSE,151,2.0,2.0,91,0.00,,,0.00,LWC V1.00 B64,2013-07-22 12:24:00,
2013-07-22 05:29:00,55.8,53.2,29.92,SSE,152,0.0,1.0,91,0.00,,,0.00,LWC V1.00 B64,2013-07-22 12:29:00,
2013-07-22 05:34:00,55.8,53.2,29.92,SSE,152,0.0,2.0,91,0.00,,,0.00,LWC V1.00 B64,2013-07-22 12:34:00,
2013-07-22 05:39:00,55.9,53.3,29.92,SSE,153,0.0,2.0,91,0.00,,,0.00,LWC V1.00 B64,2013-07-22 12:39:00,
2013-07-22 05:44:00,55.9,53.3,29.92,SSE,153,0.0,2.0,91,0.00,,,0.00,LWC V1.00 B64,2013-07-22 12:44:00,
2013-07-22 05:49:00,56.0,53.4,29.93,SSE,159,0.0,1.0,91,0.00,,,0.00,LWC V1.00 B64,2013-07-22 12:49:00,
2013-07-22 05:54:00,56.1,53.5,29.93,SSE,159,1.0,2.0,91,0.00,,,0.00,LWC V1.00 B64,2013-07-22 12:54:00,
2013-07-22 05:59:00,56.1,53.5,29.93,SSE,159,0.0,2.0,91,0.00,,,0.00,LWC V1.00 B64,2013-07-22 12:59:00,
2013-07-22 06:05:00,56.0,53.4,29.93,SSE,159,0.0,1.0,91,0.00,,,0.00,LWC V1.00 B64,2013-07-22 13:05:00,
2013-07-22 06:10:00,55.9,53.3,29.93,SSE,159,0.0,2.0,91,0.00,,,0.00,LWC V1.00 B64,2013-07-22 13:10:00,
2013-07-22 06:15:00,55.9,53.3,29.93,SSE,159,0.0,0.0,91,0.00,,,0.00,LWC V1.00 B64,2013-07-22 13:15:00,
2013-07-22 06:20:00,56.0,53.4,29.93,SE,146,0.0,3.0,91,0.00,,,0.00,LWC V1.00 B64,2013-07-22 13:20:00,
2013-07-22 06:25:00,55.9,53.3,29.94,SE,146,0.0,1.0,91,0.00,,,0.00,LWC V1.00 B64,2013-07-22 13:25:00,
2013-07-22 06:30:00,55.9,53.3,29.93,SSE,147,0.0,0.0,91,0.00,,,0.00,LWC V1.00 B64,2013-07-22 13:30:00,
2013-07-22 06:35:00,55.8,52.9,29.93,SSE,152,0.0,2.0,90,0.00,,,0.00,LWC V1.00 B64,2013-07-22 13:35:00,
2013-07-22 06:40:00,55.8,52.9,29.93,SSE,156,0.0,2.0,90,0.00,,,0.00,LWC V1.00 B64,2013-07-22 13:40:00,
2013-07-22 06:45:00,55.7,52.8,29.94,SSE,157,1.0,2.0,90,0.00,,,0.00,LWC V1.00 B64,2013-07-22 13:45:00,
2013-07-22 06:50:00,55.7,53.1,29.94,SE,145,0.0,4.0,91,0.00,,,0.00,LWC V1.00 B64,2013-07-22 13:50:00,
2013-07-22 06:55:00,55.9,53.3,29.94,SSE,160,0.0,3.0,91,0.00,,,0.00,LWC V1.00 B64,2013-07-22 13:55:00,
2013-07-22 07:00:00,56.0,53.4,29.94,SSE,168,0.0,0.0,91,0.00,,,0.00,LWC V1.00 B64,2013-07-22 14:00:00,
2013-07-22 07:05:00,56.2,53.6,29.94,SSE,168,0.0,0.0,91,0.00,,,0.00,LWC V1.00 B64,2013-07-22 14:05:00,
2013-07-22 07:10:00,56.2,53.3,29.94,SSE,168,0.0,0.0,90,0.00,,,0.00,LWC V1.00 B64,2013-07-22 14:10:00,
2013-07-22 07:15:00,56.4,53.8,29.95,SSE,168,0.0,0.0,91,0.00,,,0.00,LWC V1.00 B64,2013-07-22 14:15:00,
2013-07-22 07:20:00,56.6,54.0,29.95,SSE,163,1.0,3.0,91,0.00,,,0.00,LWC V1.00 B64,2013-07-22 14:20:00,
2013-07-22 07:25:00,56.7,53.8,29.95,SE,140,1.0,3.0,90,0.00,,,0.00,LWC V1.00 B64,2013-07-22 14:25:00,
2013-07-22 07:30:00,57.0,54.1,29.95,SSE,154,0.0,1.0,90,0.00,,,0.00,LWC V1.00 B64,2013-07-22 14:30:00,
2013-07-22 07:35:00,57.2,54.3,29.95,SSE,157,0.0,0.0,90,0.00,,,0.00,LWC V1.00 B64,2013-07-22 14:35:00,
2013-07-22 07:40:00,57.5,54.6,29.95,ESE,105,0.0,0.0,90,0.00,,,0.00,LWC V1.00 B64,2013-07-22 14:40:00,
2013-07-22 07:45:00,57.7,54.8,29.95,SE,130,0.0,5.0,90,0.00,,,0.00,LWC V1.00 B64,2013-07-22 14:45:00,
2013-07-22 07:50:00,57.8,54.9,29.95,SE,130,1.0,1.0,90,0.00,,,0.00,LWC V1.00 B64,2013-07-22 14:50:00,
2013-07-22 07:55:00,58.0,54.8,29.95,ESE,103,0.0,2.0,89,0.00,,,0.00,LWC V1.00 B64,2013-07-22 14:55:00,
2013-07-22 08:00:00,58.2,55.0,29.95,ESE,113,0.0,1.0,89,0.00,,,0.00,LWC V1.00 B64,2013-07-22 15:00:00,
2013-07-22 08:05:00,58.5,55.3,29.96,ESE,113,0.0,0.0,89,0.00,,,0.00,LWC V1.00 B64,2013-07-22 15:05:00,
2013-07-22 08:10:00,58.7,55.5,29.96,ESE,113,2.0,2.0,89,0.00,,,0.00,LWC V1.00 B64,2013-07-22 15:10:00,
2013-07-22 08:15:00,59.0,55.8,29.95,ESE,113,0.0,1.0,89,0.00,,,0.00,LWC V1.00 B64,2013-07-22 15:15:00,
2013-07-22 08:20:00,59.5,56.3,29.96,South,171,0.0,1.0,89,0.00,,,0.00,LWC V1.00 B64,2013-07-22 15:20:00,
2013-07-22 08:25:00,59.8,56.2,29.96,SSE,156,2.0,3.0,88,0.00,,,0.00,LWC V1.00 B64,2013-07-22 15:25:00,
2013-07-22 08:30:00,60.1,56.5,29.96,South,183,0.0,3.0,88,0.00,,,0.00,LWC V1.00 B64,2013-07-22 15:30:00,
2013-07-22 08:35:00,60.5,56.9,29.96,South,173,1.0,3.0,88,0.00,,,0.00,LWC V1.00 B64,2013-07-22 15:35:00,
2013-07-22 08:40:00,60.8,57.2,29.96,South,171,0.0,2.0,88,0.00,,,0.00,LWC V1.00 B64,2013-07-22 15:40:00,
2013-07-22 08:45:00,61.0,57.1,29.96,SE,143,3.0,3.0,87,0.00,,,0.00,LWC V1.00 B64,2013-07-22 15:45:00,
2013-07-22 08:50:00,61.5,57.6,29.96,South,190,0.0,3.0,87,0.00,,,0.00,LWC V1.00 B64,2013-07-22 15:50:00,
2013-07-22 08:55:00,62.0,58.1,29.96,SSE,156,0.0,5.0,87,0.00,,,0.00,LWC V1.00 B64,2013-07-22 15:55:00,
2013-07-22 09:00:00,62.5,58.2,29.95,South,184,0.0,1.0,86,0.00,,,0.00,LWC V1.00 B64,2013-07-22 16:00:00,
2013-07-22 09:05:00,62.9,58.3,29.96,SE,136,2.0,2.0,85,0.00,,,0.00,LWC V1.00 B64,2013-07-22 16:05:00,
2013-07-22 09:10:00,63.2,58.6,29.95,South,174,0.0,3.0,85,0.00,,,0.00,LWC V1.00 B64,2013-07-22 16:10:00,
2013-07-22 09:15:00,63.8,59.2,29.96,SSW,207,1.0,5.0,85,0.00,,,0.00,LWC V1.00 B64,2013-07-22 16:15:00,
2013-07-22 09:21:00,64.3,59.4,29.95,SSW,207,3.0,3.0,84,0.00,,,0.00,LWC V1.00 B64,2013-07-22 16:21:00,
2013-07-22 09:26:00,64.7,59.4,29.95,SSW,203,0.0,0.0,83,0.00,,,0.00,LWC V1.00 B64,2013-07-22 16:26:00,
2013-07-22 09:31:00,65.2,59.6,29.95,SSW,199,0.0,1.0,82,0.00,,,0.00,LWC V1.00 B64,2013-07-22 16:31:00,
2013-07-22 09:36:00,65.7,60.0,29.95,SSW,199,0.0,3.0,82,0.00,,,0.00,LWC V1.00 B64,2013-07-22 16:36:00,
2013-07-22 09:41:00,65.9,59.9,29.95,SSW,200,0.0,4.0,81,0.00,,,0.00,LWC V1.00 B64,2013-07-22 16:41:00,
2013-07-22 09:46:00,66.2,60.2,29.95,SSW,202,0.0,4.0,81,0.00,,,0.00,LWC V1.00 B64,2013-07-22 16:46:00,
2013-07-22 09:51:00,66.5,60.1,29.95,SSW,204,0.0,4.0,80,0.00,,,0.00,LWC V1.00 B64,2013-07-22 16:51:00,
2013-07-22 09:56:00,67.1,61.1,29.95,SSW,205,1.0,2.0,81,0.00,,,0.00,LWC V1.00 B64,2013-07-22 16:56:00,
2013-07-22 10:01:00,67.7,60.9,29.95,SSW,205,0.0,4.0,79,0.00,,,0.00,LWC V1.00 B64,2013-07-22 17:01:00,
2013-07-22 10:06:00,67.9,61.1,29.95,SW,215,0.0,2.0,79,0.00,,,0.00,LWC V1.00 B64,2013-07-22 17:06:00,
2013-07-22 10:11:00,68.4,61.3,29.95,SW,215,0.0,3.0,78,0.00,,,0.00,LWC V1.00 B64,2013-07-22 17:11:00,
2013-07-22 10:16:00,69.0,61.8,29.95,SW,221,0.0,7.0,78,0.00,,,0.00,LWC V1.00 B64,2013-07-22 17:16:00,
2013-07-22 10:21:00,69.4,62.2,29.95,SSW,213,0.0,1.0,78,0.00,,,0.00,LWC V1.00 B64,2013-07-22 17:21:00,
2013-07-22 10:26:00,69.6,61.7,29.95,SW,215,0.0,3.0,76,0.00,,,0.00,LWC V1.00 B64,2013-07-22 17:26:00,
2013-07-22 10:31:00,69.6,61.3,29.95,SW,226,2.0,5.0,75,0.00,,,0.00,LWC V1.00 B64,2013-07-22 17:31:00,
2013-07-22 10:36:00,70.1,62.2,29.95,SW,226,0.0,3.0,76,0.00,,,0.00,LWC V1.00 B64,2013-07-22 17:36:00,
2013-07-22 10:41:00,70.5,61.8,29.95,WSW,238,0.0,1.0,74,0.00,,,0.00,LWC V1.00 B64,2013-07-22 17:41:00,
2013-07-22 10:46:00,70.9,62.2,29.95,WSW,238,0.0,1.0,74,0.00,,,0.00,LWC V1.00 B64,2013-07-22 17:46:00,
2013-07-22 10:51:00,71.1,61.6,29.95,WSW,237,0.0,3.0,72,0.00,,,0.00,LWC V1.00 B64,2013-07-22 17:51:00,
2013-07-22 10:56:00,71.1,61.6,29.95,NW,317,0.0,1.0,72,0.00,,,0.00,LWC V1.00 B64,2013-07-22 17:56:00,
2013-07-22 11:01:00,71.8,62.3,29.94,West,268,2.0,4.0,72,0.00,,,0.00,LWC V1.00 B64,2013-07-22 18:01:00,
2013-07-22 11:06:00,72.1,62.2,29.95,West,272,0.0,3.0,71,0.00,,,0.00,LWC V1.00 B64,2013-07-22 18:06:00,
2013-07-22 11:11:00,73.2,63.2,29.95,West,267,0.0,1.0,71,0.00,,,0.00,LWC V1.00 B64,2013-07-22 18:11:00,
2013-07-22 11:16:00,74.0,64.0,29.94,WSW,244,0.0,1.0,71,0.00,,,0.00,LWC V1.00 B64,2013-07-22 18:16:00,
2013-07-22 11:21:00,74.7,64.7,29.95,SW,236,1.0,4.0,71,0.00,,,0.00,LWC V1.00 B64,2013-07-22 18:21:00,
2013-07-22 11:27:00,75.2,63.9,29.95,SSW,207,2.0,4.0,68,0.00,,,0.00,LWC V1.00 B64,2013-07-22 18:27:00,
2013-07-22 11:32:00,75.0,63.3,29.95,West,271,4.0,6.0,67,0.00,,,0.00,LWC V1.00 B64,2013-07-22 18:32:00,
2013-07-22 11:37:00,74.9,63.6,29.95,SSW,210,2.0,4.0,68,0.00,,,0.00,LWC V1.00 B64,2013-07-22 18:37:00,
2013-07-22 11:42:00,74.9,63.6,29.94,SW,220,2.0,6.0,68,0.00,,,0.00,LWC V1.00 B64,2013-07-22 18:42:00,
2013-07-22 11:47:00,74.9,64.0,29.94,SSW,207,2.0,4.0,69,0.00,,,0.00,LWC V1.00 B64,2013-07-22 18:47:00,
2013-07-22 11:52:00,74.9,63.6,29.94,SSW,203,4.0,7.0,68,0.00,,,0.00,LWC V1.00 B64,2013-07-22 18:52:00,
2013-07-22 11:57:00,74.5,63.6,29.94,SSW,193,1.0,4.0,69,0.00,,,0.00,LWC V1.00 B64,2013-07-22 18:57:00,
2013-07-22 12:02:00,74.4,63.5,29.94,SSW,211,1.0,4.0,69,0.00,,,0.00,LWC V1.00 B64,2013-07-22 19:02:00,
2013-07-22 12:07:00,74.4,63.5,29.94,SSW,209,5.0,6.0,69,0.00,,,0.00,LWC V1.00 B64,2013-07-22 19:07:00,
2013-07-22 12:12:00,74.4,63.5,29.94,SSW,205,3.0,3.0,69,0.00,,,0.00,LWC V1.00 B64,2013-07-22 19:12:00,
2013-07-22 12:17:00,74.5,63.6,29.93,South,190,2.0,3.0,69,0.00,,,0.00,LWC V1.00 B64,2013-07-22 19:17:00,
2013-07-22 12:22:00,74.5,63.6,29.93,SSW,211,0.0,7.0,69,0.00,,,0.00,LWC V1.00 B64,2013-07-22 19:22:00,
2013-07-22 12:28:00,74.5,63.2,29.93,SW,214,1.0,4.0,68,0.00,,,0.00,LWC V1.00 B64,2013-07-22 19:28:00,
2013-07-22 12:33:00,74.8,64.3,29.93,SSW,201,0.0,5.0,70,0.00,,,0.00,LWC V1.00 B64,2013-07-22 19:33:00,
2013-07-22 12:38:00,75.5,64.2,29.93,SSW,213,0.0,3.0,68,0.00,,,0.00,LWC V1.00 B64,2013-07-22 19:38:00,
2013-07-22 12:43:00,76.2,64.8,29.93,SSW,213,2.0,4.0,68,0.00,,,0.00,LWC V1.00 B64,2013-07-22 19:43:00,
2013-07-22 12:48:00,76.9,65.5,29.93,SSW,207,1.0,5.0,68,0.00,,,0.00,LWC V1.00 B64,2013-07-22 19:48:00,
2013-07-22 12:53:00,77.5,64.8,29.93,SSW,212,2.0,5.0,65,0.00,,,0.00,LWC V1.00 B64,2013-07-22 19:53:00,
2013-07-22 12:58:00,77.5,65.2,29.93,SSW,205,2.0,8.0,66,0.00,,,0.00,LWC V1.00 B64,2013-07-22 19:58:00,
2013-07-22 13:03:00,77.6,64.4,29.93,SW,218,1.0,3.0,64,0.00,,,0.00,LWC V1.00 B64,2013-07-22 20:03:00,
2013-07-22 13:08:00,77.7,65.0,29.94,SSW,211,2.0,3.0,65,0.00,,,0.00,LWC V1.00 B64,2013-07-22 20:08:00,
2013-07-22 13:13:00,77.6,65.3,29.93,SSW,204,0.0,4.0,66,0.00,,,0.00,LWC V1.00 B64,2013-07-22 20:13:00,
2013-07-22 13:17:00,77.9,65.2,29.94,SSW,205,2.0,3.0,65,0.00,,,0.00,LWC V1.00 B64,2013-07-22 20:17:00,
2013-07-22 13:19:00,77.9,63.8,29.94,SSW,194,5.0,6.0,62,0.00,,,0.00,LWC V1.00 B64,2013-07-22 20:19:00,
2013-07-22 13:22:00,77.5,63.4,29.94,SSW,211,0.0,6.0,62,0.00,,,0.00,LWC V1.00 B64,2013-07-22 20:22:00,
2013-07-22 13:24:00,77.3,64.2,29.94,SSW,210,2.0,7.0,64,0.00,,,0.00,LWC V1.00 B64,2013-07-22 20:24:00,
2013-07-22 13:25:00,77.1,64.0,29.94,SSW,213,6.0,7.0,64,0.00,,,0.00,LWC V1.00 B64,2013-07-22 20:25:00,
2013-07-22 13:30:00,75.9,64.1,29.94,SSW,199,2.0,6.0,67,0.00,,,0.00,LWC V1.00 B64,2013-07-22 20:30:00,
2013-07-22 13:35:00,75.2,63.5,29.94,SW,216,2.0,9.0,67,0.00,,,0.00,LWC V1.00 B64,2013-07-22 20:35:00,
2013-07-22 13:41:00,74.4,63.5,29.94,SSW,209,2.0,5.0,69,0.00,,,0.00,LWC V1.00 B64,2013-07-22 20:41:00,
2013-07-22 13:46:00,73.8,63.0,29.94,SSW,211,0.0,6.0,69,0.00,,,0.00,LWC V1.00 B64,2013-07-22 20:46:00,
2013-07-22 13:47:00,73.7,62.9,29.94,SSW,211,0.0,6.0,69,0.00,,,0.00,LWC V1.00 B64,2013-07-22 20:47:00,
2013-07-22 13:52:00,73.3,63.3,29.94,South,180,2.0,5.0,71,0.00,,,0.00,LWC V1.00 B64,2013-07-22 20:52:00,
2013-07-22 13:57:00,73.0,62.6,29.94,SSW,205,0.0,12.0,70,0.00,,,0.00,LWC V1.00 B64,2013-07-22 20:57:00,
2013-07-22 14:02:00,72.7,63.1,29.95,SSW,208,3.0,6.0,72,0.00,,,0.00,LWC V1.00 B64,2013-07-22 21:02:00,
2013-07-22 14:07:00,72.9,62.9,29.94,South,185,1.0,6.0,71,0.00,,,0.00,LWC V1.00 B64,2013-07-22 21:07:00,
2013-07-22 14:12:00,72.5,62.9,29.94,SSW,211,0.0,1.0,72,0.00,,,0.00,LWC V1.00 B64,2013-07-22 21:12:00,
2013-07-22 14:17:00,72.6,63.0,29.94,SW,222,2.0,6.0,72,0.00,,,0.00,LWC V1.00 B64,2013-07-22 21:17:00,
2013-07-22 14:23:00,72.8,62.4,29.94,SW,234,1.0,6.0,70,0.00,,,0.00,LWC V1.00 B64,2013-07-22 21:23:00,
2013-07-22 14:28:00,73.1,62.7,29.94,SSW,194,2.0,6.0,70,0.00,,,0.00,LWC V1.00 B64,2013-07-22 21:28:00,
2013-07-22 14:33:00,73.1,63.1,29.94,South,182,3.0,6.0,71,0.00,,,0.00,LWC V1.00 B64,2013-07-22 21:33:00,
2013-07-22 14:38:00,72.8,62.4,29.94,SSW,203,3.0,7.0,70,0.00,,,0.00,LWC V1.00 B64,2013-07-22 21:38:00,
2013-07-22 14:43:00,72.7,62.7,29.94,South,179,2.0,6.0,71,0.00,,,0.00,LWC V1.00 B64,2013-07-22 21:43:00,
2013-07-22 14:48:00,72.2,62.3,29.94,South,187,2.0,12.0,71,0.00,,,0.00,LWC V1.00 B64,2013-07-22 21:48:00,
2013-07-22 14:53:00,72.4,63.2,29.95,SW,218,11.0,11.0,73,0.00,,,0.00,LWC V1.00 B64,2013-07-22 21:53:00,
2013-07-22 14:58:00,73.3,62.9,29.94,SSW,196,5.0,7.0,70,0.00,,,0.00,LWC V1.00 B64,2013-07-22 21:58:00,
2013-07-22 15:03:00,74.0,63.6,29.95,SSW,198,3.0,5.0,70,0.00,,,0.00,LWC V1.00 B64,2013-07-22 22:03:00,
2013-07-22 15:08:00,74.4,63.5,29.95,SSW,207,0.0,1.0,69,0.00,,,0.00,LWC V1.00 B64,2013-07-22 22:08:00,
2013-07-22 15:13:00,74.5,63.2,29.95,SSW,203,0.0,3.0,68,0.00,,,0.00,LWC V1.00 B64,2013-07-22 22:13:00,
2013-07-22 15:19:00,74.5,63.6,29.95,SSW,205,0.0,3.0,69,0.00,,,0.00,LWC V1.00 B64,2013-07-22 22:19:00,
2013-07-22 15:24:00,74.4,63.5,29.95,SSW,206,2.0,4.0,69,0.00,,,0.00,LWC V1.00 B64,2013-07-22 22:24:00,
2013-07-22 15:29:00,74.2,63.4,29.94,SW,221,2.0,6.0,69,0.00,,,0.00,LWC V1.00 B64,2013-07-22 22:29:00,
2013-07-22 15:34:00,73.5,62.3,29.94,SW,218,5.0,6.0,68,0.00,,,0.00,LWC V1.00 B64,2013-07-22 22:34:00,
2013-07-22 15:39:00,73.0,62.2,29.94,SW,226,0.0,5.0,69,0.00,,,0.00,LWC V1.00 B64,2013-07-22 22:39:00,
2013-07-22 15:44:00,72.4,61.6,29.94,SSW,193,1.0,4.0,69,0.00,,,0.00,LWC V1.00 B64,2013-07-22 22:44:00,
2013-07-22 15:49:00,72.1,61.8,29.95,South,190,2.0,4.0,70,0.00,,,0.00,LWC V1.00 B64,2013-07-22 22:49:00,
2013-07-22 15:54:00,71.5,61.2,29.95,South,188,4.0,6.0,70,0.00,,,0.00,LWC V1.00 B64,2013-07-22 22:54:00,
2013-07-22 15:59:00,70.9,61.0,29.95,SE,141,3.0,6.0,71,0.00,,,0.00,LWC V1.00 B64,2013-07-22 22:59:00,
2013-07-22 16:04:00,70.4,60.9,29.95,SSW,207,3.0,5.0,72,0.00,,,0.00,LWC V1.00 B64,2013-07-22 23:04:00,
2013-07-22 16:09:00,70.0,60.9,29.95,SSW,205,0.0,4.0,73,0.00,,,0.00,LWC V1.00 B64,2013-07-22 23:09:00,
2013-07-22 16:14:00,69.7,61.0,29.94,SSW,211,0.0,5.0,74,0.00,,,0.00,LWC V1.00 B64,2013-07-22 23:14:00,
2013-07-22 16:19:00,69.3,60.6,29.94,SW,214,4.0,9.0,74,0.00,,,0.00,LWC V1.00 B64,2013-07-22 23:19:00,
2013-07-22 16:25:00,68.6,60.3,29.94,SSW,203,3.0,9.0,75,0.00,,,0.00,LWC V1.00 B64,2013-07-22 23:25:00,
2013-07-22 16:30:00,68.4,60.2,29.94,SSW,212,1.0,4.0,75,0.00,,,0.00,LWC V1.00 B64,2013-07-22 23:30:00,
2013-07-22 16:35:00,68.3,60.4,29.94,SW,215,2.0,7.0,76,0.00,,,0.00,LWC V1.00 B64,2013-07-22 23:35:00,
2013-07-22 16:41:00,68.4,60.5,29.94,SW,226,6.0,7.0,76,0.00,,,0.00,LWC V1.00 B64,2013-07-22 23:41:00,
2013-07-22 16:46:00,68.3,60.4,29.94,SW,216,4.0,6.0,76,0.00,,,0.00,LWC V1.00 B64,2013-07-22 23:46:00,
2013-07-22 16:51:00,68.3,60.4,29.94,SW,216,2.0,7.0,76,0.00,,,0.00,LWC V1.00 B64,2013-07-22 23:51:00,
2013-07-22 16:56:00,67.9,60.0,29.93,SSW,206,1.0,5.0,76,0.00,,,0.00,LWC V1.00 B64,2013-07-22 23:56:00,
2013-07-22 17:01:00,67.7,59.9,29.94,SSW,211,4.0,7.0,76,0.00,,,0.00,LWC V1.00 B64,2013-07-23 00:01:00,
2013-07-22 17:06:00,67.7,60.2,29.94,SSW,192,2.0,4.0,77,0.00,,,0.00,LWC V1.00 B64,2013-07-23 00:06:00,
2013-07-22 17:11:00,67.5,60.0,29.94,SW,216,0.0,5.0,77,0.00,,,0.00,LWC V1.00 B64,2013-07-23 00:11:00,
2013-07-22 17:16:00,67.2,59.7,29.94,SSW,207,0.0,3.0,77,0.00,,,0.00,LWC V1.00 B64,2013-07-23 00:16:00,
2013-07-22 17:21:00,67.0,59.2,29.94,SW,222,0.0,7.0,76,0.00,,,0.00,LWC V1.00 B64,2013-07-23 00:21:00,
2013-07-22 17:26:00,66.7,59.3,29.94,SW,215,0.0,4.0,77,0.00,,,0.00,LWC V1.00 B64,2013-07-23 00:26:00,
2013-07-22 17:31:00,66.4,59.0,29.94,SW,217,0.0,4.0,77,0.00,,,0.00,LWC V1.00 B64,2013-07-23 00:31:00,
2013-07-22 17:36:00,66.5,59.4,29.95,SW,215,2.0,3.0,78,0.00,,,0.00,LWC V1.00 B64,2013-07-23 00:36:00,
2013-07-22 17:41:00,66.2,59.1,29.94,SW,233,0.0,4.0,78,0.00,,,0.00,LWC V1.00 B64,2013-07-23 00:41:00,
2013-07-22 17:46:00,65.9,58.8,29.94,SSW,211,0.0,5.0,78,0.00,,,0.00,LWC V1.00 B64,2013-07-23 00:46:00,
2013-07-22 17:51:00,65.6,58.9,29.95,SW,218,1.0,3.0,79,0.00,,,0.00,LWC V1.00 B64,2013-07-23 00:51:00,
2013-07-22 17:56:00,65.2,58.2,29.95,SSW,210,2.0,6.0,78,0.00,,,0.00,LWC V1.00 B64,2013-07-23 00:56:00,
2013-07-22 18:01:00,64.8,58.1,29.95,SSW,213,0.0,2.0,79,0.00,,,0.00,LWC V1.00 B64,2013-07-23 01:01:00,
2013-07-22 18:06:00,64.5,58.2,29.95,SW,221,0.0,7.0,80,0.00,,,0.00,LWC V1.00 B64,2013-07-23 01:06:00,
2013-07-22 18:11:00,64.1,58.1,29.95,SSW,213,3.0,4.0,81,0.00,,,0.00,LWC V1.00 B64,2013-07-23 01:11:00,
2013-07-22 18:16:00,63.8,57.9,29.95,SW,219,2.0,10.0,81,0.00,,,0.00,LWC V1.00 B64,2013-07-23 01:16:00,
2013-07-22 18:21:00,63.5,57.6,29.95,SW,223,0.0,0.0,81,0.00,,,0.00,LWC V1.00 B64,2013-07-23 01:21:00,
2013-07-22 18:26:00,63.4,57.8,29.95,SW,221,0.0,2.0,82,0.00,,,0.00,LWC V1.00 B64,2013-07-23 01:26:00,
2013-07-22 18:31:00,63.2,57.6,29.95,SW,217,2.0,7.0,82,0.00,,,0.00,LWC V1.00 B64,2013-07-23 01:31:00,
2013-07-22 18:36:00,62.9,57.3,29.96,SW,216,0.0,2.0,82,0.00,,,0.00,LWC V1.00 B64,2013-07-23 01:36:00,
2013-07-22 18:41:00,62.6,57.0,29.95,SSW,210,2.0,6.0,82,0.00,,,0.00,LWC V1.00 B64,2013-07-23 01:41:00,
2013-07-22 18:46:00,62.2,56.6,29.96,SSW,203,2.0,7.0,82,0.00,,,0.00,LWC V1.00 B64,2013-07-23 01:46:00,
2013-07-22 18:51:00,62.1,56.5,29.96,South,175,0.0,3.0,82,0.00,,,0.00,LWC V1.00 B64,2013-07-23 01:51:00,
2013-07-22 18:56:00,61.9,56.7,29.96,SSW,192,2.0,4.0,83,0.00,,,0.00,LWC V1.00 B64,2013-07-23 01:56:00,
2013-07-22 19:01:00,62.1,57.2,29.96,SSW,197,0.0,5.0,84,0.00,,,0.00,LWC V1.00 B64,2013-07-23 02:01:00,
2013-07-22 19:06:00,62.1,57.2,29.96,SSW,197,0.0,1.0,84,0.00,,,0.00,LWC V1.00 B64,2013-07-23 02:06:00,
2013-07-22 19:11:00,61.9,56.7,29.96,SSW,197,0.0,0.0,83,0.00,,,0.00,LWC V1.00 B64,2013-07-23 02:11:00,
2013-07-22 19:16:00,61.8,56.6,29.96,SSW,197,0.0,1.0,83,0.00,,,0.00,LWC V1.00 B64,2013-07-23 02:16:00,
2013-07-22 19:21:00,61.7,56.5,29.96,SSW,196,0.0,1.0,83,0.00,,,0.00,LWC V1.00 B64,2013-07-23 02:21:00,
2013-07-22 19:26:00,61.7,56.5,29.97,SSW,196,0.0,1.0,83,0.00,,,0.00,LWC V1.00 B64,2013-07-23 02:26:00,
2013-07-22 19:31:00,61.7,56.5,29.96,WSW,239,4.0,4.0,83,0.00,,,0.00,LWC V1.00 B64,2013-07-23 02:31:00,
2013-07-22 19:36:00,61.6,56.4,29.96,WSW,238,0.0,2.0,83,0.00,,,0.00,LWC V1.00 B64,2013-07-23 02:36:00,
2013-07-22 19:41:00,61.5,56.3,29.96,WSW,238,0.0,2.0,83,0.00,,,0.00,LWC V1.00 B64,2013-07-23 02:41:00,
2013-07-22 19:46:00,61.3,56.1,29.96,WSW,238,0.0,0.0,83,0.00,,,0.00,LWC V1.00 B64,2013-07-23 02:46:00,
2013-07-22 19:51:00,61.2,56.0,29.96,WSW,238,0.0,0.0,83,0.00,,,0.00,LWC V1.00 B64,2013-07-23 02:51:00,
2013-07-22 19:56:00,61.1,55.9,29.96,WSW,238,0.0,1.0,83,0.00,,,0.00,LWC V1.00 B64,2013-07-23 02:56:00,
2013-07-22 20:01:00,61.1,55.9,29.97,WSW,238,0.0,0.0,83,0.00,,,0.00,LWC V1.00 B64,2013-07-23 03:01:00,
2013-07-22 20:06:00,61.1,55.9,29.97,WSW,238,0.0,1.0,83,0.00,,,0.00,LWC V1.00 B64,2013-07-23 03:06:00,
2013-07-22 20:11:00,61.0,55.8,29.97,WSW,239,0.0,0.0,83,0.00,,,0.00,LWC V1.00 B64,2013-07-23 03:11:00,
2013-07-22 20:16:00,60.9,55.7,29.97,WSW,239,0.0,0.0,83,0.00,,,0.00,LWC V1.00 B64,2013-07-23 03:16:00,
2013-07-22 20:21:00,61.0,56.1,29.97,WSW,238,0.0,0.0,84,0.00,,,0.00,LWC V1.00 B64,2013-07-23 03:21:00,
2013-07-22 20:26:00,61.0,56.1,29.96,WSW,239,1.0,3.0,84,0.00,,,0.00,LWC V1.00 B64,2013-07-23 03:26:00,
2013-07-22 20:31:00,60.9,56.0,29.96,WSW,239,0.0,0.0,84,0.00,,,0.00,LWC V1.00 B64,2013-07-23 03:31:00,
2013-07-22 20:36:00,60.8,55.9,29.96,WSW,239,0.0,0.0,84,0.00,,,0.00,LWC V1.00 B64,2013-07-23 03:36:00,
2013-07-22 20:41:00,60.7,55.8,29.96,WSW,238,0.0,1.0,84,0.00,,,0.00,LWC V1.00 B64,2013-07-23 03:41:00,
2013-07-22 20:46:00,60.7,55.8,29.96,WSW,239,0.0,0.0,84,0.00,,,0.00,LWC V1.00 B64,2013-07-23 03:46:00,
2013-07-22 20:51:00,60.6,55.7,29.96,WSW,239,1.0,1.0,84,0.00,,,0.00,LWC V1.00 B64,2013-07-23 03:51:00,
2013-07-22 20:56:00,60.5,55.6,29.96,WSW,238,1.0,1.0,84,0.00,,,0.00,LWC V1.00 B64,2013-07-23 03:56:00,
2013-07-22 21:01:00,60.4,55.5,29.96,WSW,238,0.0,0.0,84,0.00,,,0.00,LWC V1.00 B64,2013-07-23 04:01:00,
2013-07-22 21:02:00,60.3,55.4,29.95,WSW,238,0.0,0.0,84,0.00,,,0.00,LWC V1.00 B64,2013-07-23 04:02:00,
2013-07-22 21:05:00,60.3,55.8,29.95,WSW,239,0.0,2.0,85,0.00,,,0.00,LWC V1.00 B64,2013-07-23 04:05:00,
2013-07-22 21:06:00,60.2,55.7,29.95,WSW,239,0.0,1.0,85,0.00,,,0.00,LWC V1.00 B64,2013-07-23 04:06:00,
2013-07-22 21:11:00,60.1,55.6,29.95,SSW,204,0.0,2.0,85,0.00,,,0.00,LWC V1.00 B64,2013-07-23 04:11:00,
2013-07-22 21:13:00,60.1,55.6,29.96,SSW,204,0.0,0.0,85,0.00,,,0.00,LWC V1.00 B64,2013-07-23 04:13:00,
2013-07-22 21:18:00,60.0,55.5,29.96,SSW,204,0.0,0.0,85,0.00,,,0.00,LWC V1.00 B64,2013-07-23 04:18:00,
2013-07-22 21:23:00,59.8,55.3,29.97,SSW,203,0.0,2.0,85,0.00,,,0.00,LWC V1.00 B64,2013-07-23 04:23:00,
2013-07-22 21:28:00,59.6,55.4,29.97,SSW,203,0.0,0.0,86,0.00,,,0.00,LWC V1.00 B64,2013-07-23 04:28:00,
2013-07-22 21:33:00,59.4,55.2,29.97,SSW,204,0.0,0.0,86,0.00,,,0.00,LWC V1.00 B64,2013-07-23 04:33:00,
2013-07-22 21:38:00,59.4,55.2,29.97,SSW,204,0.0,0.0,86,0.00,,,0.00,LWC V1.00 B64,2013-07-23 04:38:00,
2013-07-22 21:43:00,59.4,55.2,29.97,SSW,203,0.0,0.0,86,0.00,,,0.00,LWC V1.00 B64,2013-07-23 04:43:00,
2013-07-22 21:48:00,59.4,55.2,29.97,SSW,204,0.0,0.0,86,0.00,,,0.00,LWC V1.00 B64,2013-07-23 04:48:00,
2013-07-22 21:53:00,59.3,55.1,29.97,SSW,204,0.0,0.0,86,0.00,,,0.00,LWC V1.00 B64,2013-07-23 04:53:00,
2013-07-22 21:58:00,59.3,55.1,29.97,SSW,204,0.0,0.0,86,0.00,,,0.00,LWC V1.00 B64,2013-07-23 04:58:00,
2013-07-22 22:03:00,59.3,55.1,29.98,SSW,203,0.0,0.0,86,0.00,,,0.00,LWC V1.00 B64,2013-07-23 05:03:00,
2013-07-22 22:08:00,59.3,55.4,29.98,SSW,204,0.0,0.0,87,0.00,,,0.00,LWC V1.00 B64,2013-07-23 05:08:00,
2013-07-22 22:13:00,59.4,55.5,29.98,SSW,204,0.0,0.0,87,0.00,,,0.00,LWC V1.00 B64,2013-07-23 05:13:00,
2013-07-22 22:18:00,59.3,55.4,29.98,SSW,203,0.0,0.0,87,0.00,,,0.00,LWC V1.00 B64,2013-07-23 05:18:00,
2013-07-22 22:23:00,59.4,55.5,29.98,SSW,203,0.0,0.0,87,0.00,,,0.00,LWC V1.00 B64,2013-07-23 05:23:00,
2013-07-22 22:28:00,59.3,55.4,29.98,SSW,204,0.0,0.0,87,0.00,,,0.00,LWC V1.00 B64,2013-07-23 05:28:00,
2013-07-22 22:33:00,59.3,55.4,29.98,SSW,204,0.0,0.0,87,0.00,,,0.00,LWC V1.00 B64,2013-07-23 05:33:00,
2013-07-22 22:38:00,59.3,55.4,29.98,SSW,203,0.0,0.0,87,0.00,,,0.00,LWC V1.00 B64,2013-07-23 05:38:00,
2013-07-22 22:43:00,59.2,55.3,29.99,SSW,204,0.0,0.0,87,0.00,,,0.00,LWC V1.00 B64,2013-07-23 05:43:00,
2013-07-22 22:48:00,59.2,55.3,29.98,SSW,204,0.0,0.0,87,0.00,,,0.00,LWC V1.00 B64,2013-07-23 05:48:00,
2013-07-22 22:53:00,59.2,55.3,29.98,SSW,203,0.0,0.0,87,0.00,,,0.00,LWC V1.00 B64,2013-07-23 05:53:00,
2013-07-22 22:58:00,59.3,55.4,29.98,SSW,203,0.0,0.0,87,0.00,,,0.00,LWC V1.00 B64,2013-07-23 05:58:00,
2013-07-22 23:03:00,59.3,55.4,29.98,SSW,204,0.0,0.0,87,0.00,,,0.00,LWC V1.00 B64,2013-07-23 06:03:00,
2013-07-22 23:08:00,59.3,55.4,29.98,SSW,204,0.0,0.0,87,0.00,,,0.00,LWC V1.00 B64,2013-07-23 06:08:00,
2013-07-22 23:13:00,59.2,55.3,29.97,SSW,204,0.0,0.0,87,0.00,,,0.00,LWC V1.00 B64,2013-07-23 06:13:00,
2013-07-22 23:18:00,59.2,55.3,29.98,SSW,204,0.0,0.0,87,0.00,,,0.00,LWC V1.00 B64,2013-07-23 06:18:00,
2013-07-22 23:23:00,59.2,55.3,29.98,SSW,204,0.0,0.0,87,0.00,,,0.00,LWC V1.00 B64,2013-07-23 06:23:00,
2013-07-22 23:28:00,59.2,55.3,29.97,SSW,204,0.0,0.0,87,0.00,,,0.00,LWC V1.00 B64,2013-07-23 06:28:00,
2013-07-22 23:33:00,59.3,55.7,29.97,SSW,203,0.0,0.0,88,0.00,,,0.00,LWC V1.00 B64,2013-07-23 06:33:00,
2013-07-22 23:38:00,59.3,55.7,29.97,SSW,203,0.0,0.0,88,0.00,,,0.00,LWC V1.00 B64,2013-07-23 06:38:00,
2013-07-22 23:43:00,59.4,55.8,29.98,SSW,204,0.0,0.0,88,0.00,,,0.00,LWC V1.00 B64,2013-07-23 06:43:00,
2013-07-22 23:48:00,59.4,55.8,29.97,SSW,204,0.0,0.0,88,0.00,,,0.00,LWC V1.00 B64,2013-07-23 06:48:00,
2013-07-22 23:53:00,59.3,55.7,29.97,SSW,203,0.0,0.0,88,0.00,,,0.00,LWC V1.00 B64,2013-07-23 06:53:00,
2013-07-22 23:58:00,59.2,55.6,29.96,WNW,294,1.0,4.0,88,0.00,,,0.00,LWC V1.00 B64,2013-07-23 06:58:00,